Time;durP1;ratioP1;P1;durP2;ratioP2;P2;SDS_P1;SDS_P2;PMS_P1;PMS_P2;Temp;Humidity;BMP_temperature;BMP_pressure;BME280_temperature;BME280_humidity;BME280_pressure;Samples;Min_cycle;Max_cycle;Signal;HPM_P1;HPM_P2
2023/04/27 00:02:10;;;;;;;5.00;3.87;;;;;;;6.04;76.15;101068.16;5039018;28;20249;-82
2023/04/27 00:04:38;;;;;;;8.57;4.13;;;;;;;6.01;74.58;101093.19;5040609;28;20589;-82
2023/04/27 00:07:06;;;;;;;5.07;4.43;;;;;;;5.84;74.78;101113.69;5040459;28;20223;-83
2023/04/27 00:09:33;;;;;;;5.17;3.80;;;;;;;5.87;74.80;101137.06;5040563;28;20214;-82
2023/04/27 00:12:00;;;;;;;4.50;4.03;;;;;;;5.78;75.88;101168.88;5040921;28;20253;-80
2023/04/27 00:14:27;;;;;;;4.37;3.97;;;;;;;5.84;77.24;101137.88;5039822;28;20202;-80
2023/04/27 00:16:54;;;;;;;5.27;4.70;;;;;;;5.74;74.73;101141.19;5039429;28;20317;-81
2023/04/27 00:19:21;;;;;;;5.07;4.30;;;;;;;5.74;75.28;101147.25;5039878;28;20218;-80
2023/04/27 00:21:47;;;;;;;4.67;4.17;;;;;;;5.83;77.95;101115.41;5039141;28;20693;-82
2023/04/27 00:24:18;;;;;;;4.97;4.20;;;;;;;5.70;75.69;101142.03;5040845;28;20215;-81
2023/04/27 00:26:45;;;;;;;6.50;4.37;;;;;;;5.54;75.08;101153.91;5039805;28;20249;-80
2023/04/27 00:29:11;;;;;;;7.33;4.50;;;;;;;5.49;74.69;101150.38;5040249;28;20202;-83
2023/04/27 00:31:38;;;;;;;8.77;4.97;;;;;;;5.46;75.65;101151.22;5040242;28;20203;-82
2023/04/27 00:34:04;;;;;;;4.90;4.23;;;;;;;5.44;75.66;101142.56;5040624;28;20214;-82
2023/04/27 00:36:32;;;;;;;5.00;4.00;;;;;;;5.38;76.10;101139.88;5040271;28;20263;-82
2023/04/27 00:38:59;;;;;;;7.37;4.50;;;;;;;5.54;76.75;101131.47;5040182;28;20206;-81
2023/04/27 00:41:28;;;;;;;4.57;4.00;;;;;;;5.62;77.21;101109.97;5040118;28;20226;-81
2023/04/27 00:43:54;;;;;;;7.90;4.73;;;;;;;5.50;76.46;101102.94;5041135;28;20262;-83
2023/04/27 00:46:20;;;;;;;5.50;4.17;;;;;;;5.50;77.04;101101.19;5041000;28;20219;-83
2023/04/27 00:48:47;;;;;;;5.17;4.60;;;;;;;5.49;77.36;101088.22;5041150;28;20210;-82
2023/04/27 00:51:14;;;;;;;5.37;4.77;;;;;;;5.47;78.46;101092.50;5040568;28;20252;-82
2023/04/27 00:53:41;;;;;;;4.80;4.40;;;;;;;5.52;79.10;101075.34;5040942;28;20890;-81
2023/04/27 00:56:08;;;;;;;6.97;4.73;;;;;;;5.54;78.85;101052.91;5050758;28;20232;-82
2023/04/27 00:58:37;;;;;;;7.47;4.73;;;;;;;5.64;80.33;101017.63;5051268;28;20206;-80
2023/04/27 01:01:04;;;;;;;7.07;4.97;;;;;;;5.69;80.92;101003.00;5051701;28;20329;-80
2023/04/27 01:03:31;;;;;;;6.47;4.43;;;;;;;5.71;81.02;100980.59;5046280;28;20202;-81
2023/04/27 01:06:00;;;;;;;6.03;4.30;;;;;;;5.77;82.09;100960.78;5052810;28;20306;-79
2023/04/27 01:08:28;;;;;;;4.83;4.33;;;;;;;5.76;80.77;100972.00;5052934;28;20222;-81
2023/04/27 01:10:55;;;;;;;4.93;4.43;;;;;;;5.81;80.79;100972.06;5052751;28;20231;-83
2023/04/27 01:13:21;;;;;;;4.93;4.20;;;;;;;5.85;80.54;100980.72;5052947;28;20207;-80
2023/04/27 01:15:49;;;;;;;5.63;5.13;;;;;;;5.53;79.84;101007.13;5037208;28;20230;-80
2023/04/27 01:18:15;;;;;;;5.50;5.07;;;;;;;5.53;79.52;101002.84;5036323;28;20203;-82
2023/04/27 01:20:42;;;;;;;6.73;5.07;;;;;;;5.61;78.54;101020.19;5036610;28;20228;-80
2023/04/27 01:23:08;;;;;;;4.93;4.37;;;;;;;5.62;79.73;101011.56;5036517;28;20210;-80
2023/04/27 01:25:39;;;;;;;5.47;4.83;;;;;;;5.45;79.66;101022.63;5036052;28;20234;-82
2023/04/27 01:28:07;;;;;;;10.90;5.27;;;;;;;5.37;80.17;101014.75;5036174;28;20202;-82
2023/04/27 01:30:38;;;;;;;6.73;5.07;;;;;;;5.43;80.78;101002.72;5035998;28;20211;-80
2023/04/27 01:33:04;;;;;;;6.13;4.63;;;;;;;5.48;81.34;100983.81;5036338;28;20242;-80
2023/04/27 01:35:30;;;;;;;6.47;5.10;;;;;;;5.51;80.90;100990.72;5036256;28;20243;-80
2023/04/27 01:37:57;;;;;;;6.63;5.63;;;;;;;5.52;81.06;100995.06;5036727;28;20195;-82
2023/04/27 01:40:23;;;;;;;6.57;5.87;;;;;;;5.43;80.67;100998.44;5035990;28;20262;-80
2023/04/27 01:42:51;;;;;;;6.10;4.67;;;;;;;5.39;81.25;101012.16;5036772;28;20203;-80
2023/04/27 01:45:17;;;;;;;6.63;5.23;;;;;;;5.40;82.36;100985.44;5036329;28;20204;-81
2023/04/27 01:47:44;;;;;;;5.63;5.13;;;;;;;5.34;81.75;100977.59;5035987;28;20681;-80
2023/04/27 01:50:10;;;;;;;6.00;5.40;;;;;;;5.24;82.46;100980.94;5035594;28;20250;-82
2023/04/27 01:52:37;;;;;;;6.40;4.83;;;;;;;5.05;82.68;100980.72;5036489;28;20229;-80
2023/04/27 01:55:03;;;;;;;5.57;4.97;;;;;;;5.03;83.64;100973.78;5035371;28;20738;-80
2023/04/27 01:57:30;;;;;;;8.03;5.50;;;;;;;4.95;83.89;100963.34;5035735;28;20226;-80
2023/04/27 01:59:58;;;;;;;7.43;5.20;;;;;;;4.87;84.45;100949.44;5035947;28;20297;-80
2023/04/27 02:02:24;;;;;;;8.03;5.53;;;;;;;4.76;84.79;100941.56;5035916;28;20237;-82
2023/04/27 02:04:51;;;;;;;5.50;4.93;;;;;;;4.78;85.54;100924.34;5035947;28;20260;-80
2023/04/27 02:07:18;;;;;;;7.67;5.10;;;;;;;4.73;85.44;100907.88;5035709;28;20234;-80
2023/04/27 02:09:44;;;;;;;7.10;5.37;;;;;;;4.74;85.10;100913.09;5035520;28;20206;-81
2023/04/27 02:12:10;;;;;;;7.57;5.90;;;;;;;4.48;85.73;100911.88;5035195;28;20349;-80
2023/04/27 02:14:37;;;;;;;10.07;4.83;;;;;;;4.35;86.35;100898.78;5035143;28;20739;-79
2023/04/27 02:17:04;;;;;;;7.33;4.97;;;;;;;4.24;87.03;100890.03;5035673;28;20227;-80
2023/04/27 02:19:31;;;;;;;7.13;5.20;;;;;;;4.20;87.10;100877.03;5035327;28;20252;-82
2023/04/27 02:21:58;;;;;;;6.57;4.93;;;;;;;4.17;88.03;100872.69;5035858;28;20293;-80
2023/04/27 02:24:24;;;;;;;9.33;5.40;;;;;;;4.08;87.93;100869.97;5035113;28;20266;-80
2023/04/27 02:26:50;;;;;;;7.07;5.80;;;;;;;4.07;88.28;100866.53;5034570;28;20253;-82
2023/04/27 02:29:17;;;;;;;8.23;6.07;;;;;;;3.97;88.22;100857.75;5034895;28;20207;-81
2023/04/27 02:31:44;;;;;;;5.77;5.17;;;;;;;3.95;88.58;100856.00;5035205;28;20247;-79
2023/04/27 02:34:11;;;;;;;6.57;5.70;;;;;;;3.97;88.46;100857.75;5034836;28;20206;-82
2023/04/27 02:36:38;;;;;;;5.20;4.60;;;;;;;3.91;88.35;100859.41;5035317;28;20238;-79
2023/04/27 02:39:04;;;;;;;7.00;5.10;;;;;;;3.90;88.64;100849.91;5035794;28;20265;-80
2023/04/27 02:41:31;;;;;;;7.33;4.63;;;;;;;3.87;88.36;100855.91;5035104;28;20226;-79
2023/04/27 02:43:59;;;;;;;6.57;5.07;;;;;;;3.83;88.61;100861.00;5035221;28;20692;-80
2023/04/27 02:46:26;;;;;;;5.87;5.17;;;;;;;3.81;88.33;100863.56;5034968;28;20651;-79
2023/04/27 02:48:53;;;;;;;5.23;4.63;;;;;;;3.83;88.32;100856.69;5034802;28;20212;-79
2023/04/27 02:51:20;;;;;;;5.90;5.40;;;;;;;3.86;88.33;100855.88;5035422;28;20198;-82
2023/04/27 02:53:51;;;;;;;5.53;4.80;;;;;;;3.85;88.43;100859.31;5034524;28;20212;-81
2023/04/27 02:56:17;;;;;;;7.70;4.97;;;;;;;3.86;89.96;100843.81;5034889;28;20280;-80
2023/04/27 02:58:44;;;;;;;6.83;4.83;;;;;;;3.71;89.79;100831.56;5034649;28;20203;-80
2023/04/27 03:01:10;;;;;;;5.60;4.80;;;;;;;3.76;89.58;100832.47;5034425;28;20240;-81
2023/04/27 03:03:39;;;;;;;6.50;5.10;;;;;;;3.83;89.83;100830.03;5033943;28;20255;-82
2023/04/27 03:06:06;;;;;;;6.37;4.63;;;;;;;3.91;89.10;100829.28;5033434;28;20222;-80
2023/04/27 03:08:33;;;;;;;5.07;4.53;;;;;;;4.04;89.04;100842.34;5032889;28;20272;-80
2023/04/27 03:11:02;;;;;;;6.63;5.23;;;;;;;4.03;88.06;100861.31;5034044;28;20202;-82
2023/04/27 03:13:30;;;;;;;5.20;4.70;;;;;;;3.86;87.71;100873.94;5033755;28;20213;-82
2023/04/27 03:15:56;;;;;;;5.83;5.27;;;;;;;3.85;87.57;100872.22;5033536;28;20229;-81
2023/04/27 03:18:23;;;;;;;5.67;5.10;;;;;;;3.80;88.22;100887.63;5033263;28;20206;-79
2023/04/27 03:20:49;;;;;;;7.93;4.90;;;;;;;3.83;88.29;100879.09;5033038;28;20252;-83
2023/04/27 03:23:15;;;;;;;5.07;4.53;;;;;;;3.86;88.79;100868.78;5033452;28;20285;-80
2023/04/27 03:25:43;;;;;;;7.47;4.87;;;;;;;3.88;89.22;100867.94;5033251;28;20234;-80
2023/04/27 03:28:10;;;;;;;5.83;5.13;;;;;;;3.80;90.07;100861.81;5032812;28;20261;-80
2023/04/27 03:30:39;;;;;;;6.03;5.53;;;;;;;3.72;89.63;100847.91;5032817;28;20685;-80
2023/04/27 03:33:05;;;;;;;6.07;4.80;;;;;;;3.63;88.65;100860.66;5033296;28;20736;-80
2023/04/27 03:35:31;;;;;;;5.73;5.13;;;;;;;3.68;89.41;100848.72;5032567;28;20238;-80
2023/04/27 03:37:58;;;;;;;5.03;4.53;;;;;;;3.69;89.36;100856.47;5033031;28;20269;-81
2023/04/27 03:40:24;;;;;;;7.80;4.93;;;;;;;3.64;88.51;100875.31;5033297;28;20202;-80
2023/04/27 03:42:52;;;;;;;5.47;4.90;;;;;;;3.64;88.38;100877.91;5032934;28;20233;-79
2023/04/27 03:45:21;;;;;;;6.60;4.97;;;;;;;3.71;87.97;100890.06;5032813;28;20206;-80
2023/04/27 03:47:49;;;;;;;4.63;4.23;;;;;;;3.64;88.08;100901.13;5032607;28;20592;-82
2023/04/27 03:50:17;;;;;;;6.37;4.43;;;;;;;3.59;87.13;100916.56;5032911;28;20587;-79
2023/04/27 03:52:43;;;;;;;4.57;3.97;;;;;;;3.59;87.84;100919.13;5032965;28;20692;-80
2023/04/27 03:55:10;;;;;;;6.63;4.57;;;;;;;3.59;87.08;100929.47;5032050;28;20206;-80
2023/04/27 03:57:40;;;;;;;4.13;3.80;;;;;;;3.57;87.36;100932.00;5032341;28;20268;-82
2023/04/27 04:00:13;;;;;;;6.00;5.10;;;;;;;3.46;87.56;100936.09;5032973;28;20688;-81
2023/04/27 04:02:41;;;;;;;5.93;4.30;;;;;;;3.42;88.69;100921.41;5032780;28;20226;-82
2023/04/27 04:05:11;;;;;;;5.10;4.13;;;;;;;3.48;88.16;100936.13;5033248;28;20212;-80
2023/04/27 04:07:37;;;;;;;5.07;3.93;;;;;;;3.38;87.38;100937.69;5033053;28;20582;-82
2023/04/27 04:10:04;;;;;;;9.57;5.43;;;;;;;3.37;87.86;100941.13;5032437;28;20232;-80
2023/04/27 04:12:30;;;;;;;8.17;3.83;;;;;;;3.41;88.67;100922.25;5032334;28;20203;-81
2023/04/27 04:14:57;;;;;;;5.17;4.23;;;;;;;3.46;89.03;100918.03;5032550;28;20676;-80
2023/04/27 04:17:24;;;;;;;6.67;4.07;;;;;;;3.50;88.23;100913.81;5032953;28;20253;-80
2023/04/27 04:19:51;;;;;;;5.60;3.90;;;;;;;3.56;87.45;100919.94;5032926;28;20207;-80
2023/04/27 04:22:17;;;;;;;7.13;3.80;;;;;;;3.35;85.97;100960.81;5033596;28;20226;-80
2023/04/27 04:24:44;;;;;;;6.67;4.07;;;;;;;3.31;86.24;100972.81;5033361;28;20206;-80
2023/04/27 04:27:10;;;;;;;9.67;3.93;;;;;;;3.28;86.24;100984.78;5032941;28;20226;-83
2023/04/27 04:29:39;;;;;;;6.90;3.67;;;;;;;3.33;87.15;100981.47;5032818;28;20681;-82
2023/04/27 04:32:08;;;;;;;3.50;3.20;;;;;;;3.26;88.09;100965.84;5032539;28;20301;-80
2023/04/27 04:34:36;;;;;;;4.30;3.90;;;;;;;3.21;87.58;100962.28;5032448;28;20216;-80
2023/04/27 04:37:03;;;;;;;5.20;3.40;;;;;;;3.15;86.50;100971.66;5054905;22;20238;-83
2023/04/27 04:39:30;;;;;;;5.90;3.67;;;;;;;3.13;86.74;100975.91;5036506;28;20240;-78
2023/04/27 04:42:03;;;;;;;5.10;3.70;;;;;;;3.18;86.20;100987.19;5039978;28;20272;-82
2023/04/27 04:44:32;;;;;;;5.10;4.13;;;;;;;3.21;85.85;100995.81;5040525;28;20266;-81
2023/04/27 04:46:58;;;;;;;6.57;3.77;;;;;;;3.27;85.46;101001.97;5039966;28;20313;-81
2023/04/27 04:49:24;;;;;;;5.97;4.23;;;;;;;3.27;86.00;101009.72;5040207;28;20246;-80
2023/04/27 04:51:52;;;;;;;4.90;3.67;;;;;;;3.28;86.15;101006.28;5040038;28;20202;-82
2023/04/27 04:54:18;;;;;;;5.50;4.13;;;;;;;3.25;85.55;101020.84;5040309;28;20209;-81
2023/04/27 04:56:45;;;;;;;4.97;4.07;;;;;;;3.30;85.85;101025.25;5041064;28;20787;-81
2023/04/27 04:59:11;;;;;;;5.57;3.77;;;;;;;3.35;85.58;101033.06;5040645;28;20212;-81
2023/04/27 05:01:42;;;;;;;6.77;4.47;;;;;;;3.33;86.03;101039.91;5040496;28;20336;-81
2023/04/27 05:04:09;;;;;;;4.10;3.30;;;;;;;3.35;86.33;101041.72;5038836;28;20209;-81
2023/04/27 05:06:36;;;;;;;7.67;3.67;;;;;;;3.35;85.63;101035.66;5038800;28;20284;-81
2023/04/27 05:09:05;;;;;;;5.10;3.77;;;;;;;3.42;86.29;101029.78;5039168;28;20258;-81
2023/04/27 05:11:34;;;;;;;4.73;4.10;;;;;;;3.42;85.79;101034.94;5039577;28;20213;-81
2023/04/27 05:14:05;;;;;;;5.57;3.87;;;;;;;3.47;85.65;101042.78;5028757;28;20670;-82
2023/04/27 05:16:31;;;;;;;5.43;3.67;;;;;;;3.51;85.46;101045.47;5039716;28;20758;-82
2023/04/27 05:18:58;;;;;;;5.63;3.80;;;;;;;3.49;85.34;101052.31;5039676;28;20210;-81
2023/04/27 05:21:24;;;;;;;4.80;3.90;;;;;;;3.49;85.42;101056.56;5039151;28;20233;-80
2023/04/27 05:23:52;;;;;;;6.60;4.60;;;;;;;3.56;85.99;101045.53;5038887;28;20226;-81
2023/04/27 05:26:23;;;;;;;6.57;4.80;;;;;;;3.56;85.86;101037.78;5038339;28;20225;-81
2023/04/27 05:28:50;;;;;;;9.70;4.50;;;;;;;3.55;85.25;101044.69;5039319;28;20265;-81
2023/04/27 05:31:16;;;;;;;6.37;4.47;;;;;;;3.60;86.05;101052.50;5039253;28;20209;-81
2023/04/27 05:33:44;;;;;;;5.50;4.87;;;;;;;3.67;84.97;101050.94;5038875;28;20203;-81
2023/04/27 05:36:13;;;;;;;7.27;4.73;;;;;;;3.69;84.38;101063.03;5039134;28;20206;-82
2023/04/27 05:38:40;;;;;;;6.50;4.33;;;;;;;3.74;84.82;101076.88;5039262;28;20316;-82
2023/04/27 05:41:06;;;;;;;7.70;4.60;;;;;;;3.87;85.09;101075.41;5038050;28;20301;-82
2023/04/27 05:43:36;;;;;;;5.57;4.17;;;;;;;3.85;84.69;101081.38;5030647;28;20253;-82
2023/04/27 05:46:05;;;;;;;6.10;4.20;;;;;;;3.93;84.37;101090.16;5019082;28;20828;-81
2023/04/27 05:48:31;;;;;;;6.30;4.73;;;;;;;4.07;84.06;101099.00;5019806;28;20207;-82
2023/04/27 05:51:01;;;;;;;6.60;5.00;;;;;;;3.96;82.97;101114.31;5021773;28;20230;-81
2023/04/27 05:53:28;;;;;;;4.57;4.13;;;;;;;4.19;83.25;101124.22;5025959;28;20316;-81
2023/04/27 05:55:54;;;;;;;5.43;4.70;;;;;;;4.30;84.04;101120.09;5026940;28;20253;-82
2023/04/27 05:58:20;;;;;;;6.93;5.20;;;;;;;4.30;84.10;101121.78;5026945;28;20290;-80
2023/04/27 06:00:49;;;;;;;7.63;4.57;;;;;;;4.31;82.94;101142.50;5022298;28;20215;-81
2023/04/27 06:03:15;;;;;;;5.47;4.47;;;;;;;4.29;83.68;101141.63;5012640;28;20596;-81
2023/04/27 06:05:42;;;;;;;7.77;5.00;;;;;;;4.33;83.76;101138.25;5019183;28;20330;-81
2023/04/27 06:08:08;;;;;;;10.10;4.80;;;;;;;4.32;83.90;101143.38;5017534;28;20228;-80
2023/04/27 06:10:35;;;;;;;6.13;4.77;;;;;;;4.38;84.56;101135.75;5016953;28;20253;-82
2023/04/27 06:13:02;;;;;;;9.43;4.87;;;;;;;4.43;85.85;101112.56;5019372;28;20207;-80
2023/04/27 06:15:28;;;;;;;6.13;4.60;;;;;;;4.53;85.60;101096.34;5036592;28;20203;-81
2023/04/27 06:17:56;;;;;;;5.20;4.30;;;;;;;4.57;84.99;101101.59;5017874;28;20223;-81
2023/04/27 06:20:22;;;;;;;10.07;3.93;;;;;;;4.75;84.27;101110.50;5006761;28;20205;-81
2023/04/27 06:22:48;;;;;;;4.73;3.73;;;;;;;4.83;81.82;101136.47;5005385;28;20228;-82
2023/04/27 06:25:15;;;;;;;4.77;3.80;;;;;;;4.88;81.31;101186.59;5006405;28;20199;-81
2023/04/27 06:27:41;;;;;;;5.97;3.60;;;;;;;4.83;80.46;101221.84;5006495;28;20760;-82
2023/04/27 06:30:08;;;;;;;4.87;3.97;;;;;;;4.92;81.28;101220.28;5004903;28;20690;-79
2023/04/27 06:32:35;;;;;;;5.67;4.00;;;;;;;5.06;80.63;101233.44;4996815;28;20223;-80
2023/04/27 06:35:03;;;;;;;7.40;3.80;;;;;;;5.09;79.07;101250.72;4996472;28;20219;-80
2023/04/27 06:37:29;;;;;;;4.67;3.57;;;;;;;5.23;79.23;101271.66;4996693;28;20297;-78
2023/04/27 06:39:55;;;;;;;4.20;2.90;;;;;;;5.39;78.81;101281.41;4996476;28;20211;-79
2023/04/27 06:42:22;;;;;;;6.23;3.60;;;;;;;5.44;76.94;101322.94;4997535;28;20227;-80
2023/04/27 06:44:49;;;;;;;4.33;3.30;;;;;;;5.57;76.91;101348.19;5001710;28;20195;-81
2023/04/27 06:47:15;;;;;;;5.03;3.17;;;;;;;5.59;76.23;101380.16;5007014;28;20257;-81
2023/04/27 06:49:41;;;;;;;5.10;3.20;;;;;;;5.56;76.69;101380.09;5005474;28;20203;-80
2023/04/27 06:52:09;;;;;;;3.67;3.33;;;;;;;5.72;75.87;101400.22;5004844;28;20667;-80
2023/04/27 06:54:35;;;;;;;6.87;2.80;;;;;;;5.86;75.03;101418.56;5006933;28;20710;-79
2023/04/27 06:57:02;;;;;;;3.33;3.10;;;;;;;5.83;75.54;101430.59;5016335;28;20729;-80
2023/04/27 06:59:28;;;;;;;6.13;3.60;;;;;;;5.80;75.51;101435.75;5016953;28;20203;-80
2023/04/27 07:01:55;;;;;;;3.87;2.83;;;;;;;5.92;74.47;101451.50;5012808;28;20250;-77
2023/04/27 07:04:21;;;;;;;4.90;2.80;;;;;;;6.01;73.01;101481.91;5006778;28;20277;-80
2023/04/27 07:07:18;;;;;;;4.60;2.87;;;;;;;5.89;70.64;101518.81;5006184;28;20220;-82
2023/04/27 07:09:45;;;;;;;3.57;2.53;;;;;;;6.06;71.73;101564.06;4979612;28;20257;-79
2023/04/27 07:12:33;;;;;;;6.40;2.43;;;;;;;6.07;70.13;101573.59;4998054;28;20207;-80
2023/04/27 07:15:05;;;;;;;4.93;2.57;;;;;;;5.94;70.13;101615.66;4997358;28;20216;-82
2023/04/27 07:17:31;;;;;;;4.90;2.67;;;;;;;6.03;70.36;101625.38;4996301;28;20326;-79
2023/04/27 07:19:58;;;;;;;4.53;2.30;;;;;;;5.95;70.21;101633.00;4997435;28;20207;-81
2023/04/27 07:23:02;;;;;;;2.93;2.03;;;;;;;6.07;70.52;101635.81;5006039;28;20258;-81
2023/04/27 07:25:29;;;;;;;3.53;2.00;;;;;;;6.19;69.39;101639.47;5022630;28;20221;-80
2023/04/27 07:27:59;;;;;;;3.20;2.40;;;;;;;6.21;69.38;101649.03;5027535;28;20234;-82
2023/04/27 07:30:29;;;;;;;6.37;2.43;;;;;;;6.30;69.03;101658.69;5035970;28;20214;-80
2023/04/27 07:32:59;;;;;;;3.80;2.27;;;;;;;6.44;68.90;101665.00;5036038;28;20206;-83
2023/04/27 07:35:26;;;;;;;3.67;1.97;;;;;;;6.38;68.87;101688.22;5036699;28;20580;-80
2023/04/27 07:37:52;;;;;;;4.17;2.10;;;;;;;6.51;67.13;101694.53;5038021;28;20234;-79
2023/04/27 07:40:22;;;;;;;3.07;1.87;;;;;;;6.61;65.83;101745.72;5035351;28;20264;-82
2023/04/27 07:42:49;;;;;;;3.27;1.70;;;;;;;6.38;63.34;101766.03;5034505;28;20650;-81
2023/04/27 07:45:16;;;;;;;3.67;2.20;;;;;;;6.39;64.99;101819.66;5035110;28;20203;-79
2023/04/27 07:47:55;;;;;;;5.23;2.50;;;;;;;6.46;66.83;101821.53;5034314;28;20226;-83
2023/04/27 07:50:24;;;;;;;4.07;2.57;;;;;;;6.36;66.66;101824.75;5036025;28;20218;-80
2023/04/27 07:52:50;;;;;;;3.30;1.97;;;;;;;6.19;65.58;101823.56;5036201;28;20198;-81
2023/04/27 07:55:22;;;;;;;6.43;2.87;;;;;;;6.24;65.88;101812.41;5033863;28;20199;-81
2023/04/27 07:57:48;;;;;;;3.40;1.97;;;;;;;6.22;66.37;101810.63;5023916;28;20223;-80
2023/04/27 08:00:18;;;;;;;7.77;3.97;;;;;;;6.47;67.42;101797.34;5034707;28;20206;-80
2023/04/27 08:02:45;;;;;;;3.57;2.67;;;;;;;6.75;66.99;101775.38;5034467;28;20283;-81
2023/04/27 08:05:24;;;;;;;2.27;2.07;;;;;;;6.88;64.29;101762.66;5035185;28;20214;-80
2023/04/27 08:07:53;;;;;;;4.80;1.77;;;;;;;6.59;61.01;101822.66;5034817;28;20222;-80
2023/04/27 08:10:42;;;;;;;7.97;2.13;;;;;;;6.76;64.39;101875.75;5034454;28;20203;-81
2023/04/27 08:13:09;;;;;;;4.73;2.60;;;;;;;6.75;65.41;101868.81;5035798;28;20290;-81
2023/04/27 08:15:35;;;;;;;10.00;1.90;;;;;;;6.94;65.98;101838.03;5038058;28;20207;-80
2023/04/27 08:18:02;;;;;;;8.40;2.70;;;;;;;7.09;63.00;101804.53;5038598;28;20740;-82
2023/04/27 08:20:28;;;;;;;5.70;2.70;;;;;;;7.23;62.35;101835.06;5037232;28;20206;-78
2023/04/27 08:22:55;;;;;;;2.83;1.70;;;;;;;7.33;60.63;101853.44;5037445;28;20229;-78
2023/04/27 08:25:22;;;;;;;3.53;2.00;;;;;;;7.41;60.64;101899.44;5032834;28;20267;-79
2023/04/27 08:27:49;;;;;;;3.53;1.70;;;;;;;7.39;58.64;101934.91;5034947;28;20228;-80
2023/04/27 08:30:16;;;;;;;4.03;2.10;;;;;;;7.49;59.25;101958.50;5019837;28;20307;-80
2023/04/27 08:32:42;;;;;;;5.93;2.00;;;;;;;7.43;59.67;101979.16;5019163;28;20206;-79
2023/04/27 08:35:09;;;;;;;2.77;1.67;;;;;;;7.49;60.60;101989.69;5018688;28;20211;-79
2023/04/27 08:37:36;;;;;;;2.07;1.90;;;;;;;7.53;58.72;101980.19;5019047;28;20234;-79
2023/04/27 08:40:05;;;;;;;3.23;2.10;;;;;;;7.22;58.41;102000.41;5019405;28;20212;-80
2023/04/27 08:42:31;;;;;;;3.53;1.90;;;;;;;7.00;58.47;102017.28;5019456;28;20625;-79
2023/04/27 08:44:59;;;;;;;2.13;1.50;;;;;;;7.13;58.24;102016.66;5019253;28;20254;-80
2023/04/27 08:47:26;;;;;;;2.90;1.50;;;;;;;7.06;54.70;102008.75;5019682;28;20632;-79
2023/04/27 08:49:52;;;;;;;3.23;1.30;;;;;;;6.97;55.12;102092.47;5019755;28;20218;-79
2023/04/27 08:52:18;;;;;;;2.27;1.80;;;;;;;7.08;56.72;102124.75;5018709;28;20254;-78
2023/04/27 08:54:45;;;;;;;2.60;1.60;;;;;;;7.05;56.10;102129.00;5019717;28;20261;-80
2023/04/27 08:57:12;;;;;;;4.47;2.00;;;;;;;7.24;57.26;102120.78;5027166;28;20218;-79
2023/04/27 08:59:38;;;;;;;2.37;2.00;;;;;;;7.40;56.01;102096.00;5019387;28;20270;-80
2023/04/27 09:02:17;;;;;;;2.63;1.70;;;;;;;7.46;56.60;102111.72;5019311;28;20270;-79
2023/04/27 09:04:44;;;;;;;2.40;2.20;;;;;;;7.70;56.93;102095.75;5019026;28;20277;-78
2023/04/27 09:07:11;;;;;;;3.63;2.00;;;;;;;7.90;56.11;102097.84;5019524;28;20230;-79
2023/04/27 09:09:38;;;;;;;2.63;2.10;;;;;;;7.85;55.86;102096.88;5019073;28;20208;-80
2023/04/27 09:12:14;;;;;;;5.07;2.17;;;;;;;8.05;56.63;102099.88;5020838;28;20212;-79
2023/04/27 09:14:41;;;;;;;3.40;1.70;;;;;;;8.29;56.68;102089.91;5019409;28;20210;-79
2023/04/27 09:17:09;;;;;;;1.47;1.37;;;;;;;8.42;53.89;102082.31;5019362;28;20262;-80
2023/04/27 09:19:35;;;;;;;3.40;1.50;;;;;;;8.49;53.49;102118.03;5018792;28;20210;-79
2023/04/27 09:22:07;;;;;;;4.17;1.70;;;;;;;8.44;52.77;102149.16;5019004;28;20211;-79
2023/04/27 09:24:33;;;;;;;1.40;1.30;;;;;;;8.39;53.14;102188.94;5019025;28;20227;-78
2023/04/27 09:27:00;;;;;;;2.10;1.60;;;;;;;8.25;53.82;102209.50;5028287;28;20276;-80
2023/04/27 09:29:32;;;;;;;2.23;1.83;;;;;;;7.93;53.94;102212.34;5039220;28;20208;-79
2023/04/27 09:31:59;;;;;;;1.90;1.50;;;;;;;7.52;53.25;102200.19;5038850;28;20213;-80
2023/04/27 09:34:26;;;;;;;2.80;1.80;;;;;;;7.40;54.30;102225.03;5038592;28;20205;-78
2023/04/27 09:36:53;;;;;;;6.27;1.77;;;;;;;7.54;54.08;102201.09;5038823;28;20237;-78
2023/04/27 09:39:19;;;;;;;3.03;1.90;;;;;;;7.47;54.26;102193.13;5038884;28;20207;-79
2023/04/27 09:41:48;;;;;;;2.53;2.00;;;;;;;7.69;54.41;102174.59;5039351;28;20269;-79
2023/04/27 09:44:14;;;;;;;1.60;1.50;;;;;;;7.92;54.16;102159.44;5039408;28;20226;-78
2023/04/27 09:46:44;;;;;;;2.33;1.97;;;;;;;8.20;55.02;102178.16;5039021;28;20229;-79
2023/04/27 09:49:12;;;;;;;2.63;1.90;;;;;;;8.21;50.11;102134.84;5039115;28;20339;-80
2023/04/27 09:51:40;;;;;;;4.23;1.70;;;;;;;8.33;51.59;102206.19;5039286;28;20207;-79
2023/04/27 09:54:10;;;;;;;1.77;1.67;;;;;;;8.01;49.25;102225.47;5039290;28;20229;-78
2023/04/27 09:56:47;;;;;;;3.07;1.50;;;;;;;8.11;47.56;102258.66;5022878;28;20231;-79
2023/04/27 09:59:29;;;;;;;2.40;1.57;;;;;;;8.15;48.80;102331.56;5019400;28;20215;-78
2023/04/27 10:01:59;;;;;;;1.67;1.57;;;;;;;8.08;49.03;102353.06;5019420;28;20242;-78
2023/04/27 10:04:40;;;;;;;3.03;1.93;;;;;;;8.14;50.11;102378.34;5019377;28;20222;-79
2023/04/27 10:07:11;;;;;;;2.47;2.03;;;;;;;8.20;52.74;102369.81;5019708;28;20230;-80
2023/04/27 10:09:41;;;;;;;2.30;2.10;;;;;;;8.48;51.44;102290.63;5019464;28;20203;-80
2023/04/27 10:12:16;;;;;;;3.00;2.00;;;;;;;8.80;50.94;102296.47;5019536;28;20221;-79
2023/04/27 10:14:52;;;;;;;3.53;2.07;;;;;;;9.02;50.62;102295.13;5024302;28;20214;-80
2023/04/27 10:17:23;;;;;;;4.47;2.50;;;;;;;9.11;49.55;102290.03;5011494;28;20298;-79
2023/04/27 10:19:54;;;;;;;4.70;2.10;;;;;;;9.27;50.05;102305.94;5019091;28;20260;-80
2023/04/27 10:22:23;;;;;;;4.87;2.33;;;;;;;9.29;50.06;102317.25;5018698;28;20228;-80
2023/04/27 10:24:51;;;;;;;3.53;2.20;;;;;;;8.88;49.06;102320.00;5019101;28;20226;-79
2023/04/27 10:27:21;;;;;;;2.33;2.07;;;;;;;8.70;49.04;102336.16;5019287;28;20249;-80
2023/04/27 10:29:48;;;;;;;2.60;2.40;;;;;;;8.55;49.76;102337.63;5017896;28;20203;-80
2023/04/27 10:32:19;;;;;;;4.00;1.83;;;;;;;8.85;50.62;102341.66;5019044;28;20212;-80
2023/04/27 10:34:47;;;;;;;6.70;2.70;;;;;;;9.02;48.80;102307.22;5018852;28;20201;-80
2023/04/27 10:37:15;;;;;;;2.00;1.80;;;;;;;9.14;48.87;102317.91;5045302;23;20267;-78
2023/04/27 10:39:44;;;;;;;3.73;1.90;;;;;;;9.28;49.58;102334.63;5052800;28;20208;-77
2023/04/27 10:42:10;;;;;;;2.40;1.70;;;;;;;9.42;48.75;102315.75;5053263;28;20603;-79
2023/04/27 10:44:38;;;;;;;2.80;1.80;;;;;;;9.58;46.69;102304.69;5053615;28;20231;-77
2023/04/27 10:47:14;;;;;;;2.50;1.90;;;;;;;9.78;48.12;102351.06;5053165;28;20259;-78
2023/04/27 10:49:40;;;;;;;3.53;2.40;;;;;;;9.51;45.21;102357.59;5053481;28;20261;-79
2023/04/27 10:52:07;;;;;;;2.77;2.00;;;;;;;9.05;45.06;102396.75;5052992;28;20211;-81
2023/04/27 10:54:34;;;;;;;2.10;1.80;;;;;;;9.18;46.95;102430.84;5055934;28;20205;-78
2023/04/27 10:57:07;;;;;;;2.17;1.97;;;;;;;9.61;49.43;102410.75;5055458;28;20278;-79
2023/04/27 10:59:34;;;;;;;4.53;1.90;;;;;;;9.82;47.47;102365.91;5054889;28;20628;-79
2023/04/27 11:02:01;;;;;;;2.60;2.20;;;;;;;9.62;44.12;102340.41;5054002;28;20208;-78
2023/04/27 11:04:40;;;;;;;3.17;1.90;;;;;;;9.82;45.58;102392.84;5053679;28;20235;-79
2023/04/27 11:07:26;;;;;;;2.30;1.73;;;;;;;9.93;42.17;102382.59;5085713;27;20568;-79
2023/04/27 11:09:53;;;;;;;1.83;1.53;;;;;;;10.24;42.43;102446.53;5070699;28;20263;-81
2023/04/27 11:12:19;;;;;;;1.67;1.47;;;;;;;10.19;41.56;102484.75;5080424;28;20265;-81
2023/04/27 11:14:45;;;;;;;2.10;1.40;;;;;;;10.58;44.38;102548.03;5082193;28;20208;-83
2023/04/27 11:17:12;;;;;;;2.77;1.93;;;;;;;10.34;41.71;102510.25;5080529;28;20224;-81
2023/04/27 11:19:48;;;;;;;2.30;1.80;;;;;;;10.37;44.52;102565.13;5079463;28;20258;-80
2023/04/27 11:22:16;;;;;;;3.03;1.90;;;;;;;10.14;43.04;102536.84;5080190;28;20264;-81
2023/04/27 11:24:51;;;;;;;2.17;1.90;;;;;;;10.76;44.62;102536.97;5085640;28;20215;-83
2023/04/27 11:27:18;;;;;;;3.53;2.40;;;;;;;11.39;44.66;102511.63;5086232;28;20256;-81
2023/04/27 11:29:45;;;;;;;2.17;2.03;;;;;;;12.00;41.24;102456.44;5086760;28;20234;-82
2023/04/27 11:32:19;;;;;;;2.63;2.10;;;;;;;12.91;38.93;102479.66;5081620;28;20254;-82
2023/04/27 11:34:49;;;;;;;1.90;1.63;;;;;;;15.08;36.61;102494.56;5077599;28;20302;-82
2023/04/27 11:37:21;;;;;;;1.53;1.43;;;;;;;16.67;33.80;102560.16;5077692;28;20224;-80
2023/04/27 11:39:48;;;;;;;2.30;1.67;;;;;;;18.01;31.55;102608.66;5078274;28;20213;-80